Loïc Lerenard

Loïc Lerenard

Statistiques 2019

  • Nb de partants : 394
  • Nb de victoires : 30
  • Nb de places : 83
  • Écart gagnant : 14
  • Réussite à la gagne : 8%
  • Réussite à la place : 21%
Musique : Dm 3m 8a Da 2a 0a Da Da 3m 5m 0a 4a 8m 1a 5a 0a 0a 8a
ChevalDernière courseCoursesVictoiresR. à la gagnePlacésR. à la place
Caid de Chanlecy 14/09/19 40 8 20% 11 28%
Come On du Vallon 11/09/19 52 10 19% 17 33%
Ecu du Chassin 08/09/19 19 1 5% 5 26%
Esperanza de Venzo 08/09/19 36 2 6% 5 14%
Doc Erge 08/09/19 45 3 7% 10 22%
Darwin 08/09/19 48 3 6% 10 21%
Fina Mix 08/09/19 21 1 5% 8 38%
Guinness du Vallon 08/09/19 8 0 - 1 13%
Felicia de Forges 07/09/19 15 1 7% 4 27%
Day To Day 06/09/19 45 6 13% 13 29%
Arenga de Neret 02/09/19 96 7 7% 24 25%
Fangio des Iris 02/09/19 19 2 11% 6 32%
Fortuna de Coudde 01/09/19 15 1 7% 2 13%
Flore du Vallon 01/09/19 4 0 - 0 -
Grace du Loisir 01/09/19 0 0 - 0 -
Garance de Tillard 01/09/19 0 0 - 0 -
Bella Cruz 01/09/19 67 6 9% 20 30%
Gaspard des Loups 01/09/19 7 0 - 1 14%
Etincelle du Caux 31/08/19 23 1 4% 4 17%
Elite Speed 31/08/19 29 2 7% 7 24%
Grimm 28/08/19 7 0 - 2 29%
Guepard Griff 28/08/19 9 0 - 2 22%
Gios Dairpet 28/08/19 4 1 25% 3 75%
Ginko Star 28/08/19 9 0 - 2 22%
Coyote du Caux 28/08/19 41 9 22% 17 41%
Feria Fratelli 25/08/19 19 1 5% 4 21%
Flamenco Dream 24/08/19 3 0 - 0 -
Gaby de Gouye 24/08/19 1 0 - 0 -
Goliath du Caux 24/08/19 14 1 7% 1 7%
Danyrose 23/08/19 34 0 - 5 15%
Dgin du Caux 23/08/19 51 4 8% 12 24%
Bijou des Loups 20/08/19 64 4 6% 20 31%
Desir de Banome 14/08/19 32 3 9% 6 19%
Figaro de Laubois 11/08/19 18 1 6% 5 28%
Felin du Loisir 06/08/19 14 1 7% 3 21%
Extravaganza 04/08/19 28 3 11% 6 21%
Galaxie de Daidou 29/07/19 0 0 - 0 -
Gangway 28/07/19 6 0 - 0 -
Eclat des Noix 16/07/19 32 5 16% 11 34%
Galaxie du Loisir 16/07/19 5 1 20% 2 40%
Flying Wonder 16/07/19 16 1 6% 5 31%
Canto de Bertrange 16/07/19 45 2 4% 11 24%
Eureka de Chenou 14/07/19 26 4 15% 7 27%
Eternal Wood 05/07/19 44 1 2% 5 11%
Fifa de Chenou 04/07/19 5 0 - 0 -
Elise d'Or 09/06/19 24 1 4% 3 13%
Bonviva 21/05/19 69 6 9% 17 25%
Emilie des Iris 11/05/19 15 1 7% 5 33%
Cadence d'Urzy 14/03/19 61 2 3% 11 18%
Ambiance du Loisir 22/01/19 66 9 14% 19 29%